createdAt,value
2019-02-05T00:00:09.103Z,0
2019-02-05T00:01:08.581Z,0
2019-02-05T00:02:09.031Z,0
2019-02-05T00:03:09.006Z,0
2019-02-05T00:04:08.986Z,0
2019-02-05T00:05:09.318Z,0
2019-02-05T00:06:09.589Z,0
2019-02-05T00:07:08.771Z,0
2019-02-05T00:08:08.901Z,0
2019-02-05T00:09:08.869Z,0
2019-02-05T00:10:08.594Z,0
2019-02-05T00:11:08.312Z,0
2019-02-05T00:12:08.805Z,0
2019-02-05T00:13:09.592Z,0
2019-02-05T00:14:09.020Z,0
2019-02-05T00:15:08.746Z,0
2019-02-05T00:16:08.731Z,0
2019-02-05T00:17:08.945Z,0
2019-02-05T00:18:08.667Z,0
2019-02-05T00:19:08.925Z,0
2019-02-05T00:20:08.629Z,0
2019-02-05T00:21:09.687Z,0
2019-02-05T00:22:08.578Z,0
2019-02-05T00:23:08.311Z,0
2019-02-05T00:24:08.803Z,0
2019-02-05T00:25:08.764Z,0
2019-02-05T00:26:13.564Z,0
2019-02-05T00:27:08.729Z,0
2019-02-05T00:28:08.110Z,0
2019-02-05T00:29:08.287Z,0
2019-02-05T00:30:08.168Z,0
2019-02-05T00:31:08.501Z,0
2019-02-05T00:32:08.633Z,0
2019-02-05T00:33:08.093Z,0
2019-02-05T00:34:08.571Z,0
2019-02-05T00:35:08.548Z,0
2019-02-05T00:36:08.794Z,0
2019-02-05T00:37:07.990Z,0
2019-02-05T00:38:08.231Z,0
2019-02-05T00:39:08.459Z,0
2019-02-05T00:40:08.121Z,0
2019-02-05T00:41:08.188Z,0
2019-02-05T00:42:08.140Z,0
2019-02-05T00:43:08.554Z,0
2019-02-05T00:44:08.700Z,0
2019-02-05T00:45:08.401Z,0
2019-02-05T00:46:08.339Z,0
2019-02-05T00:47:07.774Z,0
2019-02-05T00:48:08.272Z,0
2019-02-05T00:49:08.000Z,0
2019-02-05T00:50:08.224Z,0
2019-02-05T00:51:07.451Z,0
2019-02-05T00:52:08.708Z,0
2019-02-05T00:53:07.652Z,0
2019-02-05T00:54:07.781Z,0
2019-02-05T00:55:07.620Z,0
2019-02-05T00:56:19.470Z,0
2019-02-05T00:57:07.837Z,0
2019-02-05T00:58:08.062Z,0
2019-02-05T00:59:08.162Z,0
2019-02-05T01:00:08.227Z,0
2019-02-05T01:01:07.473Z,0
2019-02-05T01:02:07.945Z,0
2019-02-05T01:03:08.022Z,0
2019-02-05T01:04:07.661Z,0
2019-02-05T01:05:07.643Z,0
2019-02-05T01:06:07.097Z,0
2019-02-05T01:07:08.103Z,0
2019-02-05T01:08:07.857Z,0
2019-02-05T01:09:07.792Z,0
2019-02-05T01:10:07.525Z,0
2019-02-05T01:11:07.502Z,0
2019-02-05T01:12:07.470Z,0
2019-02-05T01:13:07.461Z,0
2019-02-05T01:14:07.695Z,0
2019-02-05T01:15:08.275Z,0
2019-02-05T01:16:07.625Z,0
2019-02-05T01:17:07.307Z,0
2019-02-05T01:18:07.638Z,0
2019-02-05T01:19:07.337Z,0
2019-02-05T01:20:07.594Z,0
2019-02-05T01:21:07.028Z,0
2019-02-05T01:22:07.518Z,0
2019-02-05T01:23:07.806Z,0
2019-02-05T01:24:06.996Z,0
2019-02-05T01:25:07.389Z,0
2019-02-05T01:26:07.163Z,0
2019-02-05T01:27:07.139Z,0
2019-02-05T01:28:07.131Z,0
2019-02-05T01:29:06.965Z,0
2019-02-05T01:30:07.576Z,0
2019-02-05T01:31:07.972Z,0
2019-02-05T01:32:06.784Z,0
2019-02-05T01:33:07.045Z,0
2019-02-05T01:34:07.258Z,0
2019-02-05T01:35:07.392Z,0
2019-02-05T01:36:06.709Z,0
2019-02-05T01:37:06.906Z,0
2019-02-05T01:38:06.628Z,0
2019-02-05T01:39:07.285Z,0
2019-02-05T01:40:06.857Z,0
2019-02-05T01:41:07.093Z,0
2019-02-05T01:42:06.547Z,0
2019-02-05T01:43:06.539Z,0
2019-02-05T01:44:06.774Z,0
2019-02-05T01:45:06.570Z,0
2019-02-05T01:46:06.979Z,0
2019-02-05T01:47:07.069Z,0
2019-02-05T01:48:06.413Z,0
2019-02-05T01:49:06.453Z,0
2019-02-05T01:50:06.401Z,0
2019-02-05T01:51:06.859Z,0
2019-02-05T01:52:06.951Z,0
2019-02-05T01:53:06.652Z,0
2019-02-05T01:54:06.934Z,0
2019-02-05T01:55:06.884Z,0
2019-02-05T01:56:06.728Z,0
2019-02-05T01:57:06.470Z,0
2019-02-05T01:58:06.188Z,0
2019-02-05T01:59:06.425Z,0
2019-02-05T02:00:06.656Z,0
2019-02-05T02:01:06.387Z,0
2019-02-05T02:02:06.792Z,0
2019-02-05T02:03:06.337Z,0
2019-02-05T02:04:06.342Z,0
2019-02-05T02:05:06.541Z,0
2019-02-05T02:06:06.261Z,0
2019-02-05T02:07:06.509Z,0
2019-02-05T02:08:06.220Z,0
2019-02-05T02:09:06.407Z,0
2019-02-05T02:10:06.302Z,0
2019-02-05T02:11:06.149Z,0
2019-02-05T02:12:06.131Z,0
2019-02-05T02:13:06.358Z,0
2019-02-05T02:14:06.347Z,0
2019-02-05T02:15:06.083Z,0
2019-02-05T02:16:06.299Z,0
2019-02-05T02:17:06.896Z,0
2019-02-05T02:18:05.989Z,0
2019-02-05T02:19:05.974Z,0
2019-02-05T02:20:06.201Z,0
2019-02-05T02:21:06.187Z,0
2019-02-05T02:22:06.162Z,0
2019-02-05T02:23:05.421Z,0
2019-02-05T02:24:05.351Z,0
2019-02-05T02:25:06.461Z,0
2019-02-05T02:26:05.561Z,0
2019-02-05T02:27:05.845Z,0
2019-02-05T02:28:06.025Z,0
2019-02-05T02:29:05.768Z,0
2019-02-05T02:30:06.002Z,0
2019-02-05T02:31:05.487Z,0
2019-02-05T02:32:05.825Z,0
2019-02-05T02:33:05.767Z,0
2019-02-05T02:34:05.946Z,0
2019-02-05T02:35:05.365Z,0
2019-02-05T02:36:05.848Z,0
2019-02-05T02:37:05.571Z,0
2019-02-05T02:38:05.820Z,0
2019-02-05T02:39:05.567Z,0
2019-02-05T02:40:06.385Z,0
2019-02-05T02:41:05.556Z,0
2019-02-05T02:42:05.468Z,0
2019-02-05T02:43:05.430Z,0
2019-02-05T02:44:05.682Z,0
2019-02-05T02:45:05.201Z,0
2019-02-05T02:46:05.370Z,0
2019-02-05T02:47:05.653Z,0
2019-02-05T02:48:06.170Z,0
2019-02-05T02:49:05.555Z,0
2019-02-05T02:50:05.609Z,0
2019-02-05T02:51:05.043Z,0
2019-02-05T02:52:05.229Z,0
2019-02-05T02:53:05.488Z,0
2019-02-05T02:54:05.451Z,0
2019-02-05T02:55:05.286Z,0
2019-02-05T02:56:06.146Z,0
2019-02-05T02:57:12.104Z,0
2019-02-05T02:58:05.397Z,0
2019-02-05T02:59:05.094Z,0
2019-02-05T03:00:05.160Z,0
2019-02-05T03:01:04.862Z,0
2019-02-05T03:02:04.842Z,0
2019-02-05T03:03:05.667Z,0
2019-02-05T03:04:05.007Z,0
2019-02-05T03:05:04.978Z,0
2019-02-05T03:06:05.207Z,0
2019-02-05T03:07:04.919Z,0
2019-02-05T03:08:04.906Z,0
2019-02-05T03:09:05.127Z,0
2019-02-05T03:10:05.119Z,0
2019-02-05T03:11:05.169Z,0
2019-02-05T03:12:05.052Z,0
2019-02-05T03:13:04.782Z,0
2019-02-05T03:14:04.757Z,0
2019-02-05T03:15:04.745Z,0
2019-02-05T03:16:04.609Z,0
2019-02-05T03:17:05.090Z,0
2019-02-05T03:18:05.094Z,0
2019-02-05T03:19:04.413Z,0
2019-02-05T03:20:04.889Z,0
2019-02-05T03:21:04.378Z,0
2019-02-05T03:22:04.587Z,0
2019-02-05T03:23:04.838Z,0
2019-02-05T03:24:04.700Z,0
2019-02-05T03:25:05.060Z,0
2019-02-05T03:26:04.228Z,0
2019-02-05T03:27:16.888Z,0
2019-02-05T03:28:04.708Z,0
2019-02-05T03:29:04.455Z,0
2019-02-05T03:30:04.469Z,0
2019-02-05T03:31:04.241Z,0
2019-02-05T03:32:04.344Z,0
2019-02-05T03:33:04.420Z,0
2019-02-05T03:34:04.326Z,0
2019-02-05T03:35:04.279Z,0
2019-02-05T03:36:04.032Z,0
2019-02-05T03:37:04.241Z,0
2019-02-05T03:38:04.495Z,0
2019-02-05T03:39:04.771Z,0
2019-02-05T03:40:03.950Z,0
2019-02-05T03:41:03.928Z,0
2019-02-05T03:42:04.527Z,0
2019-02-05T03:43:03.869Z,0
2019-02-05T03:44:04.378Z,0
2019-02-05T03:45:03.811Z,0
2019-02-05T03:46:03.992Z,0
2019-02-05T03:47:04.360Z,0
2019-02-05T03:48:04.274Z,0
2019-02-05T03:49:04.247Z,0
2019-02-05T03:50:03.724Z,0
2019-02-05T03:51:03.942Z,0
2019-02-05T03:52:04.168Z,0
2019-02-05T03:53:03.633Z,0
2019-02-05T03:54:04.355Z,0
2019-02-05T03:55:03.855Z,0
2019-02-05T03:56:04.101Z,0
2019-02-05T03:57:04.059Z,0
2019-02-05T03:58:04.024Z,0
2019-02-05T03:59:03.760Z,0
2019-02-05T04:00:03.757Z,0
2019-02-05T04:01:04.273Z,0
2019-02-05T04:02:03.677Z,0
2019-02-05T04:03:03.667Z,0
2019-02-05T04:04:03.900Z,0
2019-02-05T04:05:03.882Z,0
2019-02-05T04:06:03.602Z,0
2019-02-05T04:07:03.590Z,0
2019-02-05T04:08:03.568Z,0
2019-02-05T04:09:03.793Z,0
2019-02-05T04:10:03.283Z,0
2019-02-05T04:11:02.985Z,0
2019-02-05T04:12:06.317Z,0
2019-02-05T04:13:03.445Z,0
2019-02-05T04:14:03.440Z,0
2019-02-05T04:15:03.452Z,0
2019-02-05T04:16:03.639Z,0
2019-02-05T04:17:03.833Z,0
2019-02-05T04:18:03.106Z,0
2019-02-05T04:19:03.569Z,0
2019-02-05T04:20:03.552Z,0
2019-02-05T04:21:03.272Z,0
2019-02-05T04:22:03.292Z,0
2019-02-05T04:23:03.236Z,0
2019-02-05T04:24:03.406Z,0
2019-02-05T04:25:03.104Z,0
2019-02-05T04:26:03.151Z,0
2019-02-05T04:27:02.910Z,0
2019-02-05T04:28:03.115Z,0
2019-02-05T04:29:02.844Z,0
2019-02-05T04:30:03.069Z,0
2019-02-05T04:31:03.296Z,0
2019-02-05T04:32:03.878Z,0
2019-02-05T04:33:02.767Z,0
2019-02-05T04:34:03.079Z,0
2019-02-05T04:35:02.717Z,0
2019-02-05T04:36:02.936Z,0
2019-02-05T04:37:04.689Z,0
2019-02-05T04:38:02.398Z,0
2019-02-05T04:39:03.136Z,0
2019-02-05T04:40:03.742Z,0
2019-02-05T04:41:02.940Z,0
2019-02-05T04:42:03.106Z,0
2019-02-05T04:43:02.534Z,0
2019-02-05T04:44:02.786Z,0
2019-02-05T04:45:02.744Z,0
2019-02-05T04:46:02.730Z,0
2019-02-05T04:47:03.261Z,0
2019-02-05T04:48:03.185Z,0
2019-02-05T04:49:02.639Z,0
2019-02-05T04:50:02.660Z,0
2019-02-05T04:51:02.605Z,0
2019-02-05T04:52:02.574Z,0
2019-02-05T04:53:02.586Z,0
2019-02-05T04:54:02.959Z,0
2019-02-05T04:55:03.119Z,0
2019-02-05T04:56:01.991Z,0
2019-02-05T04:57:01.969Z,0
2019-02-05T04:58:07.769Z,0
2019-02-05T04:59:02.693Z,0
2019-02-05T05:00:02.148Z,0
2019-02-05T05:01:02.433Z,0
2019-02-05T05:02:02.433Z,0
2019-02-05T05:03:03.240Z,0
2019-02-05T05:04:02.060Z,0
2019-02-05T05:05:02.287Z,0
2019-02-05T05:06:02.294Z,0
2019-02-05T05:07:02.562Z,0
2019-02-05T05:08:02.485Z,0
2019-02-05T05:09:02.309Z,0
2019-02-05T05:10:02.911Z,0
2019-02-05T05:11:02.453Z,0
2019-02-05T05:12:02.400Z,0
2019-02-05T05:13:01.867Z,0
2019-02-05T05:14:01.872Z,0
2019-02-05T05:15:02.374Z,0
2019-02-05T05:16:02.297Z,0
2019-02-05T05:17:02.554Z,0
2019-02-05T05:18:02.664Z,0
2019-02-05T05:19:01.722Z,0
2019-02-05T05:20:02.211Z,0
2019-02-05T05:21:01.726Z,0
2019-02-05T05:22:01.926Z,0
2019-02-05T05:23:01.761Z,0
2019-02-05T05:24:01.635Z,0
2019-02-05T05:25:02.888Z,0
2019-02-05T05:26:01.607Z,0
2019-02-05T05:27:01.829Z,0
2019-02-05T05:28:14.187Z,0
2019-02-05T05:29:01.312Z,0
2019-02-05T05:30:01.769Z,0
2019-02-05T05:31:01.723Z,0
2019-02-05T05:32:01.342Z,0
2019-02-05T05:33:02.057Z,0
2019-02-05T05:34:01.153Z,0
2019-02-05T05:35:01.892Z,0
2019-02-05T05:36:01.884Z,0
2019-02-05T05:37:01.272Z,0
2019-02-05T05:38:01.870Z,0
2019-02-05T05:39:01.299Z,0
2019-02-05T05:40:02.763Z,0
2019-02-05T05:41:01.749Z,0
2019-02-05T05:42:01.596Z,0
2019-02-05T05:43:01.197Z,0
2019-02-05T05:44:01.174Z,0
2019-02-05T05:45:01.425Z,0
2019-02-05T05:46:01.417Z,0
2019-02-05T05:47:02.007Z,0
2019-02-05T05:48:01.604Z,0
2019-02-05T05:49:01.579Z,0
2019-02-05T05:50:01.568Z,0
2019-02-05T05:51:00.768Z,0
2019-02-05T05:52:01.510Z,0
2019-02-05T05:53:01.025Z,0
2019-02-05T05:54:01.223Z,0
2019-02-05T05:55:01.921Z,0
2019-02-05T05:56:01.417Z,0
2019-02-05T05:57:00.920Z,0
2019-02-05T05:58:01.136Z,0
2019-02-05T05:59:01.356Z,0
2019-02-05T06:00:01.372Z,0
2019-02-05T06:01:01.316Z,0
2019-02-05T06:02:01.152Z,0
2019-02-05T06:03:00.804Z,0
2019-02-05T06:04:01.233Z,0
2019-02-05T06:05:00.810Z,0
2019-02-05T06:06:01.205Z,0
2019-02-05T06:07:01.171Z,0
2019-02-05T06:08:00.904Z,0
2019-02-05T06:09:00.550Z,0
2019-02-05T06:10:01.521Z,0
2019-02-05T06:11:00.845Z,0
2019-02-05T06:12:00.550Z,0
2019-02-05T06:13:00.539Z,0
2019-02-05T06:14:00.515Z,0
2019-02-05T06:15:01.021Z,0
2019-02-05T06:16:00.752Z,0
2019-02-05T06:17:01.422Z,0
2019-02-05T06:18:00.711Z,0
2019-02-05T06:19:00.665Z,0
2019-02-05T06:20:00.386Z,0
2019-02-05T06:21:00.719Z,0
2019-02-05T06:22:00.621Z,0
2019-02-05T06:23:00.937Z,0
2019-02-05T06:24:00.800Z,0
2019-02-05T06:25:00.777Z,0
2019-02-05T06:26:00.502Z,0
2019-02-05T06:27:00.479Z,0
2019-02-05T06:28:00.214Z,0
2019-02-05T06:29:00.690Z,0
2019-02-05T06:30:00.674Z,0
2019-02-05T06:31:00.653Z,0
2019-02-05T06:32:00.855Z,0
2019-02-05T06:33:00.351Z,0
2019-02-05T06:34:00.592Z,0
2019-02-05T06:34:59.806Z,0
2019-02-05T06:36:00.275Z,0
2019-02-05T06:37:00.525Z,0
2019-02-05T06:37:59.973Z,0
2019-02-05T06:38:59.894Z,4
2019-02-05T06:40:00.716Z,4
2019-02-05T06:41:00.448Z,0
2019-02-05T06:42:00.413Z,4
2019-02-05T06:43:00.377Z,4
2019-02-05T06:44:00.089Z,4
2019-02-05T06:44:59.846Z,4
2019-02-05T06:45:59.556Z,4
2019-02-05T06:47:00.645Z,8
2019-02-05T06:47:59.757Z,8
2019-02-05T06:48:59.521Z,8
2019-02-05T06:50:00.316Z,8
2019-02-05T06:51:01.803Z,12
2019-02-05T06:51:59.677Z,12
2019-02-05T06:53:00.161Z,16
2019-02-05T06:54:00.618Z,20
2019-02-05T06:55:00.330Z,20
2019-02-05T06:55:59.574Z,20
2019-02-05T06:57:00.090Z,24
2019-02-05T06:57:59.553Z,28
2019-02-05T06:58:59.535Z,32
2019-02-05T06:59:59.752Z,36
2019-02-05T07:00:59.495Z,36
2019-02-05T07:02:00.189Z,40
2019-02-05T07:03:00.070Z,40
2019-02-05T07:03:59.674Z,48
2019-02-05T07:04:59.373Z,56
2019-02-05T07:05:59.611Z,56
2019-02-05T07:06:59.333Z,68
2019-02-05T07:07:59.655Z,76
2019-02-05T07:08:59.993Z,76
2019-02-05T07:09:59.255Z,84
2019-02-05T07:10:59.805Z,84
2019-02-05T07:11:58.962Z,96
2019-02-05T07:12:59.267Z,104
2019-02-05T07:14:00.736Z,100
2019-02-05T07:14:59.413Z,120
2019-02-05T07:15:59.898Z,116
2019-02-05T07:17:00.388Z,120
2019-02-05T07:17:59.095Z,128
2019-02-05T07:18:59.088Z,136
2019-02-05T07:19:59.553Z,152
2019-02-05T07:20:59.315Z,160
2019-02-05T07:21:59.554Z,160
2019-02-05T07:23:00.738Z,164
2019-02-05T07:24:00.212Z,184
2019-02-05T07:24:59.445Z,192
2019-02-05T07:25:58.920Z,200
2019-02-05T07:26:59.411Z,220
2019-02-05T07:27:59.133Z,216
2019-02-05T07:29:08.202Z,224
2019-02-05T07:29:59.085Z,232
2019-02-05T07:30:59.063Z,240
2019-02-05T07:31:59.425Z,248
2019-02-05T07:32:59.049Z,256
2019-02-05T07:33:59.318Z,292
2019-02-05T07:34:58.733Z,296
2019-02-05T07:35:59.038Z,288
2019-02-05T07:36:58.688Z,328
2019-02-05T07:37:59.224Z,332
2019-02-05T07:38:59.185Z,348
2019-02-05T07:39:59.246Z,356
2019-02-05T07:40:58.893Z,392
2019-02-05T07:41:58.865Z,384
2019-02-05T07:42:59.082Z,392
2019-02-05T07:43:59.072Z,396
2019-02-05T07:44:58.939Z,428
2019-02-05T07:45:58.820Z,480
2019-02-05T07:46:58.703Z,448
2019-02-05T07:47:58.708Z,544
2019-02-05T07:48:58.933Z,544
2019-02-05T07:49:58.688Z,672
2019-02-05T07:50:58.495Z,720
2019-02-05T07:51:58.923Z,704
2019-02-05T07:52:59.508Z,684
2019-02-05T07:53:58.326Z,648
2019-02-05T07:54:58.558Z,700
2019-02-05T07:55:58.241Z,680
2019-02-05T07:56:58.243Z,632
2019-02-05T07:57:58.468Z,720
2019-02-05T07:59:09.484Z,760
2019-02-05T07:59:59.036Z,804
2019-02-05T08:00:58.673Z,788
2019-02-05T08:01:58.675Z,820
2019-02-05T08:02:58.405Z,916
2019-02-05T08:03:58.338Z,880
2019-02-05T08:05:00.683Z,868
2019-02-05T08:05:58.316Z,900
2019-02-05T08:06:59.148Z,940
2019-02-05T08:07:58.276Z,1124
2019-02-05T08:08:58.254Z,1084
2019-02-05T08:09:58.231Z,1228
2019-02-05T08:10:57.702Z,1256
2019-02-05T08:11:58.169Z,1304
2019-02-05T08:12:58.183Z,1464
2019-02-05T08:13:58.564Z,1536
2019-02-05T08:14:57.851Z,1932
2019-02-05T08:15:58.371Z,2164
2019-02-05T08:16:57.807Z,1476
2019-02-05T08:17:57.793Z,1420
2019-02-05T08:18:58.005Z,1224
2019-02-05T08:19:57.757Z,1360
2019-02-05T08:20:58.992Z,1160
2019-02-05T08:21:58.219Z,1288
2019-02-05T08:22:57.452Z,1168
2019-02-05T08:23:57.886Z,1376
2019-02-05T08:24:57.900Z,1236
2019-02-05T08:25:57.343Z,1352
2019-02-05T08:26:58.098Z,1208
2019-02-05T08:27:58.730Z,1416
2019-02-05T08:28:58.059Z,1460
2019-02-05T08:29:57.273Z,1336
2019-02-05T08:30:57.739Z,1508
2019-02-05T08:31:58.012Z,1372
2019-02-05T08:32:57.712Z,1324
2019-02-05T08:33:57.698Z,1436
2019-02-05T08:34:58.235Z,1412
2019-02-05T08:35:57.685Z,1612
2019-02-05T08:36:57.390Z,1700
2019-02-05T08:37:57.600Z,1564
2019-02-05T08:38:57.839Z,1656
2019-02-05T08:39:57.793Z,1580
2019-02-05T08:40:57.535Z,1592
2019-02-05T08:41:57.518Z,1836
2019-02-05T08:42:58.135Z,1828
2019-02-05T08:43:57.512Z,1772
2019-02-05T08:44:56.921Z,1832
2019-02-05T08:46:04.216Z,1748
2019-02-05T08:46:57.401Z,1808
2019-02-05T08:47:57.123Z,1788
2019-02-05T08:48:57.140Z,1744
2019-02-05T08:49:58.160Z,1780
2019-02-05T08:50:57.055Z,1608
2019-02-05T08:51:57.288Z,1748
2019-02-05T08:52:57.261Z,1796
2019-02-05T08:53:57.512Z,1984
2019-02-05T08:54:57.487Z,2052
2019-02-05T08:55:57.567Z,1984
2019-02-05T08:56:57.494Z,1936
2019-02-05T08:57:56.901Z,2016
2019-02-05T08:58:57.407Z,1860
2019-02-05T08:59:57.225Z,1584
2019-02-05T09:00:57.004Z,2084
2019-02-05T09:01:56.840Z,2148
2019-02-05T09:02:56.821Z,1708
2019-02-05T09:03:57.567Z,1708
2019-02-05T09:04:57.973Z,2168
2019-02-05T09:05:56.735Z,1920
2019-02-05T09:06:56.715Z,1508
2019-02-05T09:07:57.200Z,2228
2019-02-05T09:08:56.926Z,2208
2019-02-05T09:09:56.658Z,2264
2019-02-05T09:10:56.634Z,2608
2019-02-05T09:11:57.415Z,2080
2019-02-05T09:12:57.149Z,2128
2019-02-05T09:13:56.838Z,1968
2019-02-05T09:14:57.051Z,1812
2019-02-05T09:15:56.925Z,1640
2019-02-05T09:16:56.531Z,1720
2019-02-05T09:17:56.737Z,1840
2019-02-05T09:18:56.974Z,1376
2019-02-05T09:19:57.240Z,1184
2019-02-05T09:20:56.946Z,1744
2019-02-05T09:21:56.394Z,2308
2019-02-05T09:22:56.364Z,2496
2019-02-05T09:23:56.608Z,1896
2019-02-05T09:24:56.375Z,2080
2019-02-05T09:25:56.804Z,2476
2019-02-05T09:26:56.866Z,2416
2019-02-05T09:27:56.525Z,2424
2019-02-05T09:28:59.501Z,2372
2019-02-05T09:29:56.732Z,2348
2019-02-05T09:30:56.192Z,2192
2019-02-05T09:31:56.184Z,2380
2019-02-05T09:32:56.667Z,2084
2019-02-05T09:33:56.785Z,1852
2019-02-05T09:34:56.627Z,1912
2019-02-05T09:35:56.341Z,1888
2019-02-05T09:36:56.590Z,1780
2019-02-05T09:37:57.776Z,1708
2019-02-05T09:38:56.306Z,1644
2019-02-05T09:39:56.526Z,1712
2019-02-05T09:40:56.062Z,1604
2019-02-05T09:41:56.439Z,1520
2019-02-05T09:42:56.481Z,1728
2019-02-05T09:43:56.428Z,1564
2019-02-05T09:44:56.165Z,1608
2019-02-05T09:45:56.120Z,1716
2019-02-05T09:46:56.094Z,1772
2019-02-05T09:47:56.414Z,2040
2019-02-05T09:48:56.890Z,1908
2019-02-05T09:49:56.052Z,1780
2019-02-05T09:50:56.272Z,1912
2019-02-05T09:51:56.275Z,1856
2019-02-05T09:52:55.568Z,2100
2019-02-05T09:53:55.963Z,2068
2019-02-05T09:54:55.681Z,1968
2019-02-05T09:55:58.433Z,1824
2019-02-05T09:56:56.155Z,1884
2019-02-05T09:57:55.618Z,2076
2019-02-05T09:58:55.852Z,1992
2019-02-05T09:59:55.574Z,1756
2019-02-05T10:00:55.815Z,1724
2019-02-05T10:01:56.045Z,1880
2019-02-05T10:02:56.270Z,2252
2019-02-05T10:03:55.959Z,2312
2019-02-05T10:04:55.477Z,2032
2019-02-05T10:05:55.707Z,1716
2019-02-05T10:06:56.964Z,1660
2019-02-05T10:07:55.901Z,1844
2019-02-05T10:08:55.651Z,2008
2019-02-05T10:09:55.623Z,2016
2019-02-05T10:10:56.107Z,1900
2019-02-05T10:11:55.604Z,1500
2019-02-05T10:12:55.112Z,1668
2019-02-05T10:13:55.796Z,1764
2019-02-05T10:14:55.760Z,1560
2019-02-05T10:15:55.227Z,1440
2019-02-05T10:16:55.467Z,1620
2019-02-05T10:17:56.290Z,1548
2019-02-05T10:18:54.965Z,1852
2019-02-05T10:19:55.481Z,1668
2019-02-05T10:20:55.888Z,1796
2019-02-05T10:21:55.446Z,2020
2019-02-05T10:22:55.500Z,1756
2019-02-05T10:23:55.618Z,1812
2019-02-05T10:24:56.781Z,1728
2019-02-05T10:25:55.363Z,2348
2019-02-05T10:26:54.775Z,2440
2019-02-05T10:27:55.238Z,2408
2019-02-05T10:28:55.240Z,2428
2019-02-05T10:30:06.324Z,2528
2019-02-05T10:30:55.163Z,2132
2019-02-05T10:31:55.424Z,1792
2019-02-05T10:32:57.806Z,2016
2019-02-05T10:34:02.439Z,2076
2019-02-05T10:34:55.348Z,1984
2019-02-05T10:35:54.801Z,1984
2019-02-05T10:36:54.770Z,1948
2019-02-05T10:37:55.285Z,1772
2019-02-05T10:38:55.011Z,1692
2019-02-05T10:39:55.213Z,1788
2019-02-05T10:40:55.240Z,1784
2019-02-05T10:41:54.916Z,1936
2019-02-05T10:42:55.025Z,2004
2019-02-05T10:43:54.885Z,2068
2019-02-05T10:44:54.911Z,2104
2019-02-05T10:45:54.711Z,2088
2019-02-05T10:46:55.004Z,2020
2019-02-05T10:47:55.233Z,2076
2019-02-05T10:48:54.795Z,2048
2019-02-05T10:49:54.793Z,1964
2019-02-05T10:50:54.498Z,1948
2019-02-05T10:51:54.499Z,2080
2019-02-05T10:52:54.712Z,2124
2019-02-05T10:53:55.159Z,2060
2019-02-05T10:54:55.570Z,1872
2019-02-05T10:55:54.659Z,1808
2019-02-05T10:56:54.396Z,1800
2019-02-05T10:57:54.588Z,1808
2019-02-05T10:58:54.307Z,1824
2019-02-05T11:00:07.255Z,1616
2019-02-05T11:00:54.031Z,1584
2019-02-05T11:01:55.012Z,1660
2019-02-05T11:02:54.573Z,1900
2019-02-05T11:03:54.502Z,1988
2019-02-05T11:04:54.184Z,1928
2019-02-05T11:05:54.193Z,1832
2019-02-05T11:06:54.427Z,1816
2019-02-05T11:07:54.704Z,1856
2019-02-05T11:08:54.527Z,1980
2019-02-05T11:09:54.836Z,1932
2019-02-05T11:10:54.616Z,1928
2019-02-05T11:11:54.304Z,2048
2019-02-05T11:12:54.065Z,2056
2019-02-05T11:13:54.029Z,2028
2019-02-05T11:14:54.273Z,2232
2019-02-05T11:15:53.893Z,2056
2019-02-05T11:16:54.614Z,2028
2019-02-05T11:17:54.386Z,2084
2019-02-05T11:18:53.896Z,1932
2019-02-05T11:19:54.133Z,1764
2019-02-05T11:20:53.895Z,1856
2019-02-05T11:21:54.335Z,2060
2019-02-05T11:22:54.309Z,2112
2019-02-05T11:23:55.004Z,2176
2019-02-05T11:24:53.809Z,2356
2019-02-05T11:25:53.789Z,2036
2019-02-05T11:26:53.481Z,1968
2019-02-05T11:27:53.732Z,1868
2019-02-05T11:28:53.962Z,2008
2019-02-05T11:29:54.198Z,2284
2019-02-05T11:30:54.146Z,2272
2019-02-05T11:31:54.416Z,2132
2019-02-05T11:32:55.509Z,2152
2019-02-05T11:33:54.156Z,1968
2019-02-05T11:34:53.573Z,2032
2019-02-05T11:35:53.304Z,2296
2019-02-05T11:36:53.808Z,2076
2019-02-05T11:37:53.757Z,2000
2019-02-05T11:38:54.687Z,1900
2019-02-05T11:39:53.200Z,1876
2019-02-05T11:40:53.813Z,2056
2019-02-05T11:41:53.666Z,2100
2019-02-05T11:42:53.456Z,2364
2019-02-05T11:43:53.899Z,2392
2019-02-05T11:44:53.604Z,2732
2019-02-05T11:45:54.047Z,2628
2019-02-05T11:46:53.333Z,2068
2019-02-05T11:47:53.555Z,1940
2019-02-05T11:48:53.327Z,2088
2019-02-05T11:49:53.760Z,2152
2019-02-05T11:50:53.281Z,2196
2019-02-05T11:51:53.726Z,2168
2019-02-05T11:52:54.075Z,2392
2019-02-05T11:53:53.476Z,2492
2019-02-05T11:54:53.160Z,2168
2019-02-05T11:55:52.866Z,2260
2019-02-05T11:56:53.601Z,2380
2019-02-05T11:57:53.371Z,2636
2019-02-05T11:58:53.383Z,2612
2019-02-05T11:59:53.539Z,2392
2019-02-05T12:00:53.936Z,2832
2019-02-05T12:01:52.734Z,2884
2019-02-05T12:02:55.951Z,2868
2019-02-05T12:03:53.078Z,2832
2019-02-05T12:04:53.186Z,2744
2019-02-05T12:05:53.251Z,2904
2019-02-05T12:06:53.171Z,2728
2019-02-05T12:07:53.423Z,2544
2019-02-05T12:08:52.853Z,3052
2019-02-05T12:09:53.116Z,2948
2019-02-05T12:10:53.075Z,2592
2019-02-05T12:11:52.804Z,2708
2019-02-05T12:12:53.058Z,2712
2019-02-05T12:13:52.531Z,2856
2019-02-05T12:14:55.150Z,2612
2019-02-05T12:15:52.764Z,2476
2019-02-05T12:16:53.235Z,2508
2019-02-05T12:17:52.945Z,2584
2019-02-05T12:18:52.914Z,2648
2019-02-05T12:19:55.560Z,3012
2019-02-05T12:20:53.116Z,3432
2019-02-05T12:21:53.256Z,3020
2019-02-05T12:22:53.256Z,2824
2019-02-05T12:23:52.807Z,2692
2019-02-05T12:24:52.809Z,2592
2019-02-05T12:25:52.499Z,2700
2019-02-05T12:26:52.759Z,2340
2019-02-05T12:27:52.468Z,2196
2019-02-05T12:28:52.945Z,2344
2019-02-05T12:29:53.461Z,2548
2019-02-05T12:30:52.521Z,2384
2019-02-05T12:31:52.655Z,2140
2019-02-05T12:32:52.869Z,2080
2019-02-05T12:33:52.342Z,2440
2019-02-05T12:34:52.302Z,2052
2019-02-05T12:35:52.798Z,1920
2019-02-05T12:36:52.805Z,2004
2019-02-05T12:37:52.684Z,2180
2019-02-05T12:38:52.257Z,2072
2019-02-05T12:39:52.461Z,2196
2019-02-05T12:40:52.453Z,2476
2019-02-05T12:41:52.441Z,2436
2019-02-05T12:42:52.141Z,2228
2019-02-05T12:43:52.369Z,2416
2019-02-05T12:44:53.277Z,2412
2019-02-05T12:45:52.084Z,2256
2019-02-05T12:46:52.095Z,2480
2019-02-05T12:47:52.088Z,2508
2019-02-05T12:48:52.267Z,3000
2019-02-05T12:49:52.506Z,3280
2019-02-05T12:50:51.986Z,2988
2019-02-05T12:51:52.320Z,2664
2019-02-05T12:52:52.451Z,2188
2019-02-05T12:53:51.906Z,2012
2019-02-05T12:54:52.421Z,2360
2019-02-05T12:55:52.385Z,2980
2019-02-05T12:56:52.368Z,3452
2019-02-05T12:57:52.082Z,2756
2019-02-05T12:58:52.320Z,2540
2019-02-05T12:59:52.646Z,3012
2019-02-05T13:01:05.928Z,2680
2019-02-05T13:01:51.997Z,2604
2019-02-05T13:02:54.404Z,2544
2019-02-05T13:03:51.943Z,2412
2019-02-05T13:04:51.928Z,2384
2019-02-05T13:05:51.920Z,2156
2019-02-05T13:06:52.174Z,2080
2019-02-05T13:07:52.386Z,2436
2019-02-05T13:08:51.597Z,2780
2019-02-05T13:09:51.579Z,2528
2019-02-05T13:10:52.075Z,2248
2019-02-05T13:11:52.199Z,2056
2019-02-05T13:12:51.771Z,2360
2019-02-05T13:13:51.773Z,2476
2019-02-05T13:14:52.231Z,2340
2019-02-05T13:15:51.756Z,2068
2019-02-05T13:16:51.555Z,2088
2019-02-05T13:17:51.940Z,2168
2019-02-05T13:18:54.447Z,2056
2019-02-05T13:19:51.737Z,1888
2019-02-05T13:20:51.459Z,1752
2019-02-05T13:21:52.304Z,1820
2019-02-05T13:22:52.249Z,2044
2019-02-05T13:23:51.884Z,2316
2019-02-05T13:24:51.508Z,2376
2019-02-05T13:25:51.545Z,2020
2019-02-05T13:26:51.508Z,1752
2019-02-05T13:27:51.760Z,1844
2019-02-05T13:28:51.510Z,1896
2019-02-05T13:29:51.286Z,1808
2019-02-05T13:30:52.351Z,1856
2019-02-05T13:31:51.781Z,2008
2019-02-05T13:32:51.393Z,2104
2019-02-05T13:33:51.340Z,2020
2019-02-05T13:34:51.322Z,1804
2019-02-05T13:35:51.293Z,1672
2019-02-05T13:36:50.771Z,1724
2019-02-05T13:37:51.515Z,1848
2019-02-05T13:38:52.061Z,1968
2019-02-05T13:39:51.232Z,1988
2019-02-05T13:40:50.999Z,1784
2019-02-05T13:41:51.183Z,1608
2019-02-05T13:42:51.204Z,1476
2019-02-05T13:43:50.883Z,1396
2019-02-05T13:44:50.869Z,1288
2019-02-05T13:45:51.122Z,1220
2019-02-05T13:46:51.603Z,1184
2019-02-05T13:47:51.062Z,1144
2019-02-05T13:48:51.120Z,1132
2019-02-05T13:49:50.777Z,1128
2019-02-05T13:50:51.021Z,1252
2019-02-05T13:51:50.717Z,1224
2019-02-05T13:52:50.762Z,1156
2019-02-05T13:53:51.672Z,1104
2019-02-05T13:54:51.216Z,1092
2019-02-05T13:55:50.790Z,996
2019-02-05T13:56:50.876Z,996
2019-02-05T13:57:50.614Z,1060
2019-02-05T13:58:51.094Z,1340
2019-02-05T13:59:50.822Z,1344
2019-02-05T14:00:51.116Z,1240
2019-02-05T14:01:52.443Z,1180